Time;durP1;ratioP1;P1;durP2;ratioP2;P2;SDS_P1;SDS_P2;PMS_P1;PMS_P2;Temp;Humidity;BMP_temperature;BMP_pressure;BME280_temperature;BME280_humidity;BME280_pressure;Samples;Min_cycle;Max_cycle;Signal;HPM_P1;HPM_P2
2023/11/09 00:00:00;;;;;;;4.53;3.22;;;;;;;;;;5055701;28;21008;-67
2023/11/09 00:02:26;;;;;;;6.18;3.60;;;;;;;;;;5055792;28;20058;-67
2023/11/09 00:04:55;;;;;;;9.02;4.00;;;;;;;;;;5054787;28;20064;-66
2023/11/09 00:07:23;;;;;;;6.88;3.67;;;;;;;;;;5053913;28;20061;-67
2023/11/09 00:09:52;;;;;;;5.07;3.13;;;;;;;;;;5054462;28;20060;-67
2023/11/09 00:12:19;;;;;;;4.25;3.25;;;;;;;;;;5054795;28;20053;-66
2023/11/09 00:14:47;;;;;;;5.63;3.85;;;;;;;;;;5054989;28;20060;-67
2023/11/09 00:17:14;;;;;;;3.35;2.45;;;;;;;;;;5054558;28;20053;-67
2023/11/09 00:19:41;;;;;;;3.97;2.53;;;;;;;;;;5054107;28;20071;-68
2023/11/09 00:22:09;;;;;;;4.68;3.05;;;;;;;;;;5054173;28;20057;-68
2023/11/09 00:24:36;;;;;;;5.13;2.35;;;;;;;;;;5054234;28;20087;-68
2023/11/09 00:27:03;;;;;;;3.97;2.35;;;;;;;;;;5054099;28;20059;-67
2023/11/09 00:29:30;;;;;;;2.78;1.88;;;;;;;;;;5054721;28;20056;-68
2023/11/09 00:31:59;;;;;;;3.63;2.50;;;;;;;;;;5055231;28;20068;-66
2023/11/09 00:34:26;;;;;;;5.18;2.33;;;;;;;;;;5054906;28;20073;-67
2023/11/09 00:36:53;;;;;;;4.68;2.40;;;;;;;;;;5053835;28;20068;-67
2023/11/09 00:39:22;;;;;;;3.97;2.10;;;;;;;;;;5054539;28;20060;-67
2023/11/09 00:41:49;;;;;;;3.95;2.60;;;;;;;;;;5054637;28;20060;-67
2023/11/09 00:44:15;;;;;;;4.25;2.30;;;;;;;;;;5054430;28;20053;-67
2023/11/09 00:46:42;;;;;;;3.90;2.20;;;;;;;;;;5054365;28;20060;-67
2023/11/09 00:49:09;;;;;;;3.15;1.85;;;;;;;;;;5055012;28;20053;-68
2023/11/09 00:51:36;;;;;;;2.83;1.73;;;;;;;;;;5054473;28;20108;-67
2023/11/09 00:54:03;;;;;;;3.53;2.20;;;;;;;;;;5054479;28;20060;-67
2023/11/09 00:56:31;;;;;;;2.40;1.65;;;;;;;;;;5054957;28;20071;-67
2023/11/09 00:58:58;;;;;;;4.13;2.33;;;;;;;;;;5054775;28;20053;-67
2023/11/09 01:01:25;;;;;;;3.00;2.22;;;;;;;;;;5054529;28;20474;-67
2023/11/09 01:03:52;;;;;;;2.88;2.10;;;;;;;;;;5054382;28;20422;-67
2023/11/09 01:06:19;;;;;;;2.72;2.03;;;;;;;;;;5054375;28;20056;-67
2023/11/09 01:08:46;;;;;;;4.30;2.60;;;;;;;;;;5053600;28;20053;-67
2023/11/09 01:11:12;;;;;;;3.50;2.10;;;;;;;;;;5054602;28;20056;-67
2023/11/09 01:13:40;;;;;;;3.72;2.00;;;;;;;;;;5054615;28;20049;-67
2023/11/09 01:16:08;;;;;;;5.32;2.40;;;;;;;;;;5053699;28;20056;-67
2023/11/09 01:18:36;;;;;;;3.50;2.70;;;;;;;;;;5051750;28;20060;-68
2023/11/09 01:21:03;;;;;;;6.68;2.30;;;;;;;;;;5053832;28;20490;-66
2023/11/09 01:23:30;;;;;;;5.82;2.90;;;;;;;;;;5054287;28;20053;-67
2023/11/09 01:25:57;;;;;;;2.53;2.08;;;;;;;;;;5054155;28;20426;-67
2023/11/09 01:28:23;;;;;;;5.05;2.10;;;;;;;;;;5054275;28;20486;-67
2023/11/09 01:30:52;;;;;;;4.00;2.38;;;;;;;;;;5053979;28;20057;-67
2023/11/09 01:33:18;;;;;;;4.78;2.90;;;;;;;;;;5053838;28;20057;-67
2023/11/09 01:35:45;;;;;;;8.25;2.55;;;;;;;;;;5053914;28;20053;-68
2023/11/09 01:38:12;;;;;;;6.07;3.17;;;;;;;;;;5054218;28;20060;-69
2023/11/09 01:40:39;;;;;;;6.95;3.38;;;;;;;;;;5053892;28;20056;-69
2023/11/09 01:43:11;;;;;;;6.28;2.88;;;;;;;;;;5053889;28;20060;-69
2023/11/09 01:45:37;;;;;;;9.35;3.20;;;;;;;;;;5053432;28;20057;-68
2023/11/09 01:48:06;;;;;;;5.18;3.03;;;;;;;;;;5052332;28;20494;-69
2023/11/09 01:50:33;;;;;;;5.25;2.53;;;;;;;;;;5053683;28;20060;-68
2023/11/09 01:53:01;;;;;;;4.53;2.83;;;;;;;;;;5053398;28;20053;-69
2023/11/09 01:55:29;;;;;;;9.35;3.30;;;;;;;;;;5053746;28;20521;-68
2023/11/09 01:57:55;;;;;;;5.20;3.22;;;;;;;;;;5053613;28;20438;-67
2023/11/09 02:00:25;;;;;;;5.60;3.38;;;;;;;;;;5053628;28;20049;-68
2023/11/09 02:02:53;;;;;;;4.60;3.20;;;;;;;;;;5053587;28;20065;-68
2023/11/09 02:05:22;;;;;;;6.22;2.75;;;;;;;;;;5053661;28;20127;-67
2023/11/09 02:07:48;;;;;;;4.90;2.80;;;;;;;;;;5053383;28;20071;-67
2023/11/09 02:10:15;;;;;;;7.13;3.20;;;;;;;;;;5053070;28;20052;-67
2023/11/09 02:12:42;;;;;;;4.72;3.30;;;;;;;;;;5053600;28;20056;-67
2023/11/09 02:15:09;;;;;;;6.13;3.50;;;;;;;;;;5053079;28;20053;-68
2023/11/09 02:17:36;;;;;;;4.07;2.85;;;;;;;;;;5053460;28;20053;-67
2023/11/09 02:20:04;;;;;;;4.30;2.67;;;;;;;;;;5052816;28;20474;-67
2023/11/09 02:22:33;;;;;;;4.47;2.60;;;;;;;;;;5052646;28;20413;-67
2023/11/09 02:25:01;;;;;;;5.17;2.50;;;;;;;;;;5053035;28;20478;-69
2023/11/09 02:27:28;;;;;;;4.38;2.55;;;;;;;;;;5052767;28;20124;-67
2023/11/09 02:29:54;;;;;;;3.30;2.63;;;;;;;;;;5052681;28;20056;-66
2023/11/09 02:32:21;;;;;;;5.13;3.08;;;;;;;;;;5053040;28;20482;-67
2023/11/09 02:34:48;;;;;;;3.83;2.30;;;;;;;;;;5052542;28;20416;-67
2023/11/09 02:37:15;;;;;;;3.85;2.40;;;;;;;;;;5052908;28;20388;-68
2023/11/09 02:39:42;;;;;;;5.15;2.90;;;;;;;;;;5052774;28;20486;-68
2023/11/09 02:42:11;;;;;;;7.05;2.45;;;;;;;;;;5052909;28;20482;-68
2023/11/09 02:44:39;;;;;;;5.50;2.50;;;;;;;;;;5052757;28;20079;-68
2023/11/09 02:47:06;;;;;;;3.65;2.70;;;;;;;;;;5052372;28;20048;-67
2023/11/09 02:49:33;;;;;;;4.35;2.53;;;;;;;;;;5052600;28;20053;-68
2023/11/09 02:52:00;;;;;;;4.32;2.60;;;;;;;;;;5052722;28;20060;-68
2023/11/09 02:54:27;;;;;;;4.55;2.65;;;;;;;;;;5052859;28;20053;-68
2023/11/09 02:56:54;;;;;;;5.07;2.75;;;;;;;;;;5053028;28;20056;-68
2023/11/09 02:59:22;;;;;;;3.55;2.47;;;;;;;;;;5052525;28;20501;-68
2023/11/09 03:01:49;;;;;;;4.40;2.63;;;;;;;;;;5052670;28;20406;-69
2023/11/09 03:04:17;;;;;;;3.65;2.13;;;;;;;;;;5052339;28;20053;-69
2023/11/09 03:06:44;;;;;;;3.17;2.50;;;;;;;;;;5052311;28;20056;-69
2023/11/09 03:09:12;;;;;;;4.07;2.55;;;;;;;;;;5052733;28;20072;-69
2023/11/09 03:11:39;;;;;;;2.88;2.20;;;;;;;;;;5052786;28;20053;-69
2023/11/09 03:14:06;;;;;;;3.95;3.03;;;;;;;;;;5052862;28;20061;-69
2023/11/09 03:16:34;;;;;;;4.60;2.70;;;;;;;;;;5052751;28;20053;-69
2023/11/09 03:19:02;;;;;;;4.78;2.38;;;;;;;;;;5052206;28;20057;-69
2023/11/09 03:21:28;;;;;;;4.93;2.40;;;;;;;;;;5052374;28;20053;-70
2023/11/09 03:23:55;;;;;;;3.85;2.40;;;;;;;;;;5052165;28;20057;-69
2023/11/09 03:26:22;;;;;;;4.53;2.17;;;;;;;;;;5052626;28;20053;-69
2023/11/09 03:28:49;;;;;;;4.45;2.53;;;;;;;;;;5052480;28;20053;-69
2023/11/09 03:31:16;;;;;;;4.32;2.20;;;;;;;;;;5052664;28;20049;-69
2023/11/09 03:33:44;;;;;;;3.50;2.15;;;;;;;;;;5052434;28;20482;-69
2023/11/09 03:36:17;;;;;;;3.38;1.80;;;;;;;;;;5052235;28;20508;-70
2023/11/09 03:38:45;;;;;;;4.22;2.10;;;;;;;;;;5052237;28;20064;-68
2023/11/09 03:41:12;;;;;;;4.13;1.83;;;;;;;;;;5052304;28;20071;-69
2023/11/09 03:43:40;;;;;;;3.15;1.80;;;;;;;;;;5052381;28;20064;-69
2023/11/09 03:46:12;;;;;;;4.10;1.88;;;;;;;;;;5051740;28;20445;-69
2023/11/09 03:48:38;;;;;;;3.40;1.98;;;;;;;;;;5051998;28;20078;-69
2023/11/09 03:51:07;;;;;;;2.65;1.73;;;;;;;;;;5052448;28;20052;-69
2023/11/09 03:53:33;;;;;;;3.13;1.90;;;;;;;;;;5052250;28;20490;-68
2023/11/09 03:56:00;;;;;;;2.58;1.85;;;;;;;;;;5052208;28;20401;-69
2023/11/09 03:58:27;;;;;;;3.70;1.80;;;;;;;;;;5052280;28;20049;-67
2023/11/09 04:00:54;;;;;;;3.30;1.85;;;;;;;;;;5051994;28;20103;-69
2023/11/09 04:03:21;;;;;;;3.10;1.95;;;;;;;;;;5051877;28;20053;-68
2023/11/09 04:05:48;;;;;;;4.07;1.98;;;;;;;;;;5052156;28;20405;-69
2023/11/09 04:08:16;;;;;;;3.97;2.35;;;;;;;;;;5051914;28;20060;-67
2023/11/09 04:10:43;;;;;;;3.72;2.30;;;;;;;;;;5052273;28;20048;-67
2023/11/09 04:13:10;;;;;;;2.95;1.80;;;;;;;;;;5055358;28;20063;-67
2023/11/09 04:15:37;;;;;;;2.95;2.00;;;;;;;;;;5055424;28;20052;-67
2023/11/09 04:18:04;;;;;;;2.72;2.05;;;;;;;;;;5055896;28;20060;-68
2023/11/09 04:20:30;;;;;;;4.20;2.20;;;;;;;;;;5055745;28;20072;-67
2023/11/09 04:22:58;;;;;;;2.63;1.88;;;;;;;;;;5055155;28;20064;-66
2023/11/09 04:25:26;;;;;;;3.05;1.70;;;;;;;;;;5055132;28;20052;-67
2023/11/09 04:27:53;;;;;;;3.25;2.15;;;;;;;;;;5055241;28;20076;-66
2023/11/09 04:30:20;;;;;;;2.47;1.90;;;;;;;;;;5055154;28;20065;-67
2023/11/09 04:32:47;;;;;;;5.38;1.95;;;;;;;;;;5055354;28;20052;-67
2023/11/09 04:35:14;;;;;;;3.55;2.03;;;;;;;;;;5054768;28;20524;-66
2023/11/09 04:37:41;;;;;;;2.63;2.00;;;;;;;;;;5054699;28;20498;-67
2023/11/09 04:40:14;;;;;;;4.13;1.70;;;;;;;;;;5054897;28;20060;-66
2023/11/09 04:42:43;;;;;;;3.10;1.75;;;;;;;;;;5054992;28;20470;-65
2023/11/09 04:45:11;;;;;;;3.10;1.80;;;;;;;;;;5055045;28;20057;-66
2023/11/09 04:47:41;;;;;;;3.42;1.90;;;;;;;;;;5054810;28;20056;-66
2023/11/09 04:50:13;;;;;;;3.33;1.90;;;;;;;;;;5054695;28;20053;-65
2023/11/09 04:52:44;;;;;;;2.47;1.52;;;;;;;;;;5055223;28;20060;-65
2023/11/09 04:55:14;;;;;;;4.35;1.55;;;;;;;;;;5054657;28;20067;-66
2023/11/09 05:08:43;;;;;;;2.00;1.40;;;;;;;;;;5055837;28;20057;-64
2023/11/09 05:11:13;;;;;;;2.00;1.13;;;;;;;;;;5054509;28;20052;-65
2023/11/09 05:13:40;;;;;;;3.75;1.58;;;;;;;;;;5054685;28;20064;-65
2023/11/09 05:16:08;;;;;;;2.33;1.35;;;;;;;;;;5054588;28;20060;-64
2023/11/09 05:18:38;;;;;;;2.05;1.45;;;;;;;;;;5053619;28;20053;-64
2023/11/09 05:21:06;;;;;;;2.88;1.50;;;;;;;;;;5054346;28;20052;-64
2023/11/09 05:23:33;;;;;;;5.68;1.52;;;;;;;;;;5054306;28;20391;-64
2023/11/09 05:26:01;;;;;;;3.00;1.60;;;;;;;;;;5053952;28;20056;-64
2023/11/09 05:28:28;;;;;;;2.90;1.38;;;;;;;;;;5054498;28;20056;-64
2023/11/09 05:30:55;;;;;;;2.75;1.15;;;;;;;;;;5054156;28;20544;-65
2023/11/09 05:33:23;;;;;;;2.95;1.50;;;;;;;;;;5053686;28;20056;-65
2023/11/09 05:35:50;;;;;;;2.92;1.70;;;;;;;;;;5053971;28;20136;-64
2023/11/09 05:38:19;;;;;;;3.15;1.40;;;;;;;;;;5054306;28;20057;-64
2023/11/09 05:40:47;;;;;;;2.33;1.60;;;;;;;;;;5053978;28;20063;-64
2023/11/09 05:43:21;;;;;;;2.17;1.40;;;;;;;;;;5053984;28;20491;-66
2023/11/09 05:45:48;;;;;;;2.25;1.50;;;;;;;;;;5053654;28;20057;-64
2023/11/09 05:48:15;;;;;;;2.30;1.33;;;;;;;;;;5053827;28;20065;-64
2023/11/09 05:50:46;;;;;;;2.08;1.40;;;;;;;;;;5053750;28;20409;-65
2023/11/09 05:53:13;;;;;;;2.90;1.42;;;;;;;;;;5053825;28;20048;-64
2023/11/09 05:55:40;;;;;;;3.08;1.60;;;;;;;;;;5053178;28;20064;-64
2023/11/09 05:58:08;;;;;;;2.33;1.58;;;;;;;;;;5053099;28;20072;-64
2023/11/09 06:00:35;;;;;;;2.38;1.50;;;;;;;;;;5053686;28;20064;-64
2023/11/09 06:03:02;;;;;;;3.13;1.60;;;;;;;;;;5053344;28;20045;-64
2023/11/09 06:05:29;;;;;;;1.90;1.25;;;;;;;;;;5053296;28;20064;-64
2023/11/09 06:07:57;;;;;;;4.05;1.70;;;;;;;;;;5052990;28;20063;-64
2023/11/09 06:10:25;;;;;;;2.67;1.40;;;;;;;;;;5053143;28;20061;-64
2023/11/09 06:12:52;;;;;;;2.53;1.40;;;;;;;;;;5052939;28;20060;-64
2023/11/09 06:15:18;;;;;;;2.35;1.50;;;;;;;;;;5052832;28;20049;-64
2023/11/09 06:17:45;;;;;;;3.03;1.60;;;;;;;;;;5053257;28;20052;-64
2023/11/09 06:20:15;;;;;;;3.75;1.63;;;;;;;;;;5053149;28;20064;-64
2023/11/09 06:22:41;;;;;;;3.45;1.55;;;;;;;;;;5052848;28;20053;-64
2023/11/09 06:25:10;;;;;;;2.10;1.45;;;;;;;;;;5052873;28;20056;-64
2023/11/09 06:27:37;;;;;;;2.35;1.70;;;;;;;;;;5052706;28;20064;-64
2023/11/09 06:30:04;;;;;;;2.67;1.63;;;;;;;;;;5052906;28;20367;-64
2023/11/09 06:32:32;;;;;;;2.85;1.60;;;;;;;;;;5052877;28;20056;-64
2023/11/09 06:35:01;;;;;;;3.90;1.52;;;;;;;;;;5052203;28;20489;-64
2023/11/09 06:37:28;;;;;;;2.40;1.70;;;;;;;;;;5052579;28;20421;-65
2023/11/09 06:39:58;;;;;;;3.05;2.40;;;;;;;;;;5052390;28;20049;-65
2023/11/09 06:42:26;;;;;;;2.70;1.70;;;;;;;;;;5052491;28;20056;-64
2023/11/09 06:44:54;;;;;;;5.43;2.25;;;;;;;;;;5052608;28;20053;-65
2023/11/09 06:47:20;;;;;;;3.10;2.05;;;;;;;;;;5052063;28;20061;-65
2023/11/09 06:49:47;;;;;;;3.20;2.22;;;;;;;;;;5052765;28;20053;-64
2023/11/09 06:52:14;;;;;;;2.65;1.70;;;;;;;;;;5052116;28;20052;-64
2023/11/09 06:54:41;;;;;;;2.70;2.05;;;;;;;;;;5052195;28;20056;-64
2023/11/09 06:57:11;;;;;;;4.35;2.47;;;;;;;;;;5052428;28;20053;-65
2023/11/09 06:59:37;;;;;;;;;;;;;;;;;;5053011;28;20406;-64
2023/11/09 07:02:06;;;;;;;3.65;1.60;;;;;;;;;;5052498;28;19928;-65
2023/11/09 07:04:33;;;;;;;5.15;2.10;;;;;;;;;;5052186;28;20053;-65
2023/11/09 07:07:00;;;;;;;3.60;1.50;;;;;;;;;;5052174;28;20061;-65
2023/11/09 07:09:27;;;;;;;3.58;1.77;;;;;;;;;;5052065;28;20053;-67
2023/11/09 07:11:54;;;;;;;2.70;1.80;;;;;;;;;;5052542;28;20049;-67
2023/11/09 07:14:23;;;;;;;2.65;1.58;;;;;;;;;;5052443;28;20402;-67
2023/11/09 07:16:50;;;;;;;3.45;1.73;;;;;;;;;;5052595;28;20059;-68
2023/11/09 07:19:18;;;;;;;2.42;1.90;;;;;;;;;;5052266;28;20064;-67
2023/11/09 07:21:45;;;;;;;4.88;1.48;;;;;;;;;;5051753;28;20064;-67
2023/11/09 07:24:13;;;;;;;2.88;1.33;;;;;;;;;;5051948;28;20060;-67
2023/11/09 07:26:40;;;;;;;3.53;1.50;;;;;;;;;;5052504;28;20057;-67
2023/11/09 07:29:07;;;;;;;3.60;1.27;;;;;;;;;;5051875;28;20072;-68
2023/11/09 07:31:34;;;;;;;2.45;1.48;;;;;;;;;;5052218;28;20072;-67
2023/11/09 07:34:01;;;;;;;1.65;1.20;;;;;;;;;;5051452;28;20052;-67
2023/11/09 07:36:29;;;;;;;1.70;1.20;;;;;;;;;;5052373;28;20053;-67
2023/11/09 07:38:56;;;;;;;2.15;1.30;;;;;;;;;;5052069;28;20053;-67
2023/11/09 07:41:25;;;;;;;2.63;1.40;;;;;;;;;;5052004;28;20080;-67
2023/11/09 07:43:52;;;;;;;2.80;1.40;;;;;;;;;;5051789;28;20052;-67
2023/11/09 07:46:19;;;;;;;1.80;1.00;;;;;;;;;;5053146;28;20057;-67
2023/11/09 07:48:45;;;;;;;1.50;1.13;;;;;;;;;;5056369;28;20049;-66
2023/11/09 07:51:13;;;;;;;4.60;1.20;;;;;;;;;;5055842;28;20498;-66
2023/11/09 07:53:41;;;;;;;1.80;1.08;;;;;;;;;;5055995;28;20045;-66
2023/11/09 07:56:10;;;;;;;1.90;1.30;;;;;;;;;;5055782;28;20053;-66
2023/11/09 07:58:38;;;;;;;1.50;1.00;;;;;;;;;;5055984;28;20057;-66
2023/11/09 08:01:06;;;;;;;1.20;0.80;;;;;;;;;;5055849;28;20053;-66
2023/11/09 08:03:33;;;;;;;3.95;1.42;;;;;;;;;;5055443;28;20486;-66
2023/11/09 08:06:02;;;;;;;1.52;0.80;;;;;;;;;;5055410;28;20049;-66
2023/11/09 08:08:29;;;;;;;2.35;0.93;;;;;;;;;;5055805;28;20056;-66
2023/11/09 08:10:59;;;;;;;1.25;0.68;;;;;;;;;;5055430;28;20053;-66
2023/11/09 08:13:28;;;;;;;1.38;0.90;;;;;;;;;;5055541;28;20048;-66
2023/11/09 08:15:55;;;;;;;1.37;0.60;;;;;;;;;;5055214;28;20498;-66
2023/11/09 08:18:21;;;;;;;1.17;0.77;;;;;;;;;;5055191;28;20486;-66
2023/11/09 08:20:48;;;;;;;1.60;0.80;;;;;;;;;;5055217;28;20057;-66
2023/11/09 08:23:15;;;;;;;1.45;0.80;;;;;;;;;;5055330;28;20056;-66
2023/11/09 08:25:43;;;;;;;0.98;0.65;;;;;;;;;;5055209;28;20080;-67
2023/11/09 08:28:11;;;;;;;2.65;1.00;;;;;;;;;;5055027;28;20060;-67
2023/11/09 08:30:38;;;;;;;3.53;0.70;;;;;;;;;;5055440;28;20171;-67
2023/11/09 08:33:08;;;;;;;1.55;0.88;;;;;;;;;;5055478;28;20071;-66
2023/11/09 08:35:34;;;;;;;1.20;0.60;;;;;;;;;;5055033;28;20068;-67
2023/11/09 08:38:01;;;;;;;2.08;0.65;;;;;;;;;;5055256;28;20052;-66
2023/11/09 08:40:29;;;;;;;1.38;0.60;;;;;;;;;;5055061;28;20394;-67
2023/11/09 08:42:57;;;;;;;1.30;0.70;;;;;;;;;;5054639;28;20053;-67
2023/11/09 08:45:28;;;;;;;1.77;0.60;;;;;;;;;;5055026;28;20060;-67
2023/11/09 08:47:55;;;;;;;1.23;0.57;;;;;;;;;;5054762;28;20052;-66
2023/11/09 08:50:22;;;;;;;0.80;0.45;;;;;;;;;;5054577;28;20402;-67
2023/11/09 08:52:49;;;;;;;0.90;0.50;;;;;;;;;;5055160;28;20064;-67
2023/11/09 08:55:18;;;;;;;1.13;0.60;;;;;;;;;;5054981;28;20049;-67
2023/11/09 08:57:45;;;;;;;1.50;0.80;;;;;;;;;;5054528;28;20060;-67
2023/11/09 09:00:12;;;;;;;1.58;0.73;;;;;;;;;;5054982;28;20053;-67
2023/11/09 09:02:45;;;;;;;1.20;0.70;;;;;;;;;;5054670;28;20056;-67
2023/11/09 09:05:15;;;;;;;1.17;0.50;;;;;;;;;;5054223;28;20049;-67
2023/11/09 09:07:42;;;;;;;2.72;0.60;;;;;;;;;;5054669;28;20055;-67
2023/11/09 09:10:11;;;;;;;2.03;0.68;;;;;;;;;;5054091;28;20513;-67
2023/11/09 09:12:38;;;;;;;1.13;0.70;;;;;;;;;;5054333;28;20055;-67
2023/11/09 09:15:12;;;;;;;1.27;0.50;;;;;;;;;;5054449;28;20074;-67
2023/11/09 09:17:41;;;;;;;1.30;0.60;;;;;;;;;;5054214;28;20064;-68
2023/11/09 09:20:11;;;;;;;1.15;0.73;;;;;;;;;;5053819;28;20049;-67
2023/11/09 09:22:38;;;;;;;2.05;0.80;;;;;;;;;;5054354;28;20053;-67
2023/11/09 09:25:05;;;;;;;1.73;0.70;;;;;;;;;;5053825;28;20053;-67
2023/11/09 09:27:36;;;;;;;1.10;0.60;;;;;;;;;;5054040;28;20045;-67
2023/11/09 09:30:05;;;;;;;2.08;0.70;;;;;;;;;;5054052;28;20053;-66
2023/11/09 09:32:35;;;;;;;1.30;0.70;;;;;;;;;;5054382;28;20053;-66
2023/11/09 09:35:01;;;;;;;;;;;;;;;;;;5054444;28;20045;-66
2023/11/09 09:37:32;;;;;;;1.40;0.60;;;;;;;;;;5053886;28;19921;-66
2023/11/09 09:39:59;;;;;;;1.92;0.50;;;;;;;;;;5053846;28;20410;-66
2023/11/09 09:42:26;;;;;;;2.60;0.70;;;;;;;;;;5053557;28;20053;-66
2023/11/09 09:44:53;;;;;;;1.48;0.70;;;;;;;;;;5053797;28;20481;-66
2023/11/09 09:47:20;;;;;;;1.42;0.90;;;;;;;;;;5053513;28;20530;-66
2023/11/09 09:49:49;;;;;;;1.15;0.60;;;;;;;;;;5053742;28;20053;-65
2023/11/09 09:52:16;;;;;;;2.35;0.60;;;;;;;;;;5053647;28;20052;-66
2023/11/09 09:54:44;;;;;;;1.33;0.80;;;;;;;;;;5053492;28;20063;-66
2023/11/09 09:57:11;;;;;;;1.30;0.70;;;;;;;;;;5053807;28;20052;-66
2023/11/09 09:59:38;;;;;;;2.72;0.98;;;;;;;;;;5053718;28;20057;-65
2023/11/09 10:02:07;;;;;;;0.90;0.60;;;;;;;;;;5053657;28;20106;-65
2023/11/09 10:04:35;;;;;;;1.10;0.70;;;;;;;;;;5053829;28;20132;-66
2023/11/09 10:07:02;;;;;;;1.40;0.70;;;;;;;;;;5053384;28;20053;-66
2023/11/09 10:09:31;;;;;;;1.63;0.90;;;;;;;;;;5052829;28;20053;-66
2023/11/09 10:12:00;;;;;;;1.70;1.00;;;;;;;;;;5053629;28;20056;-65
2023/11/09 10:14:28;;;;;;;1.75;1.23;;;;;;;;;;5053152;28;20049;-66
2023/11/09 10:16:56;;;;;;;1.20;0.70;;;;;;;;;;5053404;28;20053;-66
2023/11/09 10:19:23;;;;;;;1.77;0.80;;;;;;;;;;5053275;28;20494;-65
2023/11/09 10:21:51;;;;;;;1.92;1.23;;;;;;;;;;5053145;28;20501;-65
2023/11/09 10:24:19;;;;;;;3.03;1.30;;;;;;;;;;5053110;28;20505;-65
2023/11/09 10:26:47;;;;;;;3.70;1.38;;;;;;;;;;5053456;28;20052;-65
2023/11/09 10:29:17;;;;;;;4.53;1.92;;;;;;;;;;5053026;28;20060;-65
2023/11/09 10:31:44;;;;;;;5.25;1.70;;;;;;;;;;5053173;28;20501;-65
2023/11/09 10:34:12;;;;;;;5.35;2.00;;;;;;;;;;5053186;28;20060;-64
2023/11/09 10:36:40;;;;;;;5.32;2.00;;;;;;;;;;5053248;28;20053;-64
2023/11/09 10:39:16;;;;;;;4.07;1.70;;;;;;;;;;5052529;28;20057;-64
2023/11/09 10:41:44;;;;;;;4.53;1.75;;;;;;;;;;5053123;28;20053;-64
2023/11/09 10:44:11;;;;;;;5.15;1.58;;;;;;;;;;5052618;28;20410;-64
2023/11/09 10:46:41;;;;;;;6.55;1.58;;;;;;;;;;5052350;28;20052;-64
2023/11/09 10:49:11;;;;;;;5.95;1.70;;;;;;;;;;5052508;28;20064;-64
2023/11/09 10:51:41;;;;;;;5.68;1.83;;;;;;;;;;5052989;28;20057;-63
2023/11/09 10:54:08;;;;;;;5.25;1.70;;;;;;;;;;5052408;28;20056;-64
2023/11/09 10:56:35;;;;;;;5.97;1.60;;;;;;;;;;5052771;28;20079;-63
2023/11/09 10:59:05;;;;;;;5.90;1.70;;;;;;;;;;5052947;28;20048;-64
2023/11/09 11:01:33;;;;;;;5.72;1.75;;;;;;;;;;5052439;28;20053;-64
2023/11/09 11:04:08;;;;;;;4.50;1.60;;;;;;;;;;5052644;28;20053;-64
2023/11/09 11:06:50;;;;;;;4.35;1.55;;;;;;;;;;5052805;28;20401;-64
2023/11/09 11:09:25;;;;;;;5.78;1.52;;;;;;;;;;5052584;28;20053;-64
2023/11/09 11:11:54;;;;;;;6.95;1.95;;;;;;;;;;5052804;28;20060;-63
2023/11/09 11:14:23;;;;;;;5.55;1.63;;;;;;;;;;5052688;28;20049;-64
2023/11/09 11:16:57;;;;;;;5.93;1.90;;;;;;;;;;5052069;28;20057;-64
2023/11/09 11:19:36;;;;;;;5.22;1.50;;;;;;;;;;5052908;28;20063;-64
2023/11/09 11:22:10;;;;;;;6.75;1.75;;;;;;;;;;5056075;28;20055;-64
2023/11/09 11:24:54;;;;;;;7.07;1.95;;;;;;;;;;5056682;28;20048;-63
2023/11/09 11:27:30;;;;;;;7.35;2.20;;;;;;;;;;5056437;28;20064;-64
2023/11/09 11:29:58;;;;;;;6.07;2.40;;;;;;;;;;5056484;28;20048;-63
2023/11/09 11:32:33;;;;;;;7.45;1.65;;;;;;;;;;5056506;28;20068;-63
2023/11/09 11:35:02;;;;;;;8.30;1.75;;;;;;;;;;5056511;28;20915;-63
2023/11/09 11:37:29;;;;;;;8.13;2.15;;;;;;;;;;5056014;28;20414;-63
2023/11/09 11:39:56;;;;;;;6.65;2.08;;;;;;;;;;5056159;28;20508;-63
2023/11/09 11:42:25;;;;;;;6.95;1.95;;;;;;;;;;5056086;28;20163;-63
2023/11/09 11:44:52;;;;;;;7.05;2.30;;;;;;;;;;5055757;28;20060;-63
2023/11/09 11:47:21;;;;;;;7.43;2.13;;;;;;;;;;5055564;28;20064;-63
2023/11/09 11:49:48;;;;;;;5.23;2.10;;;;;;;;;;5056119;28;20060;-62
2023/11/09 11:52:19;;;;;;;8.15;1.80;;;;;;;;;;5055948;28;20079;-63
2023/11/09 11:54:46;;;;;;;7.00;1.73;;;;;;;;;;5055659;28;20049;-63
2023/11/09 11:57:14;;;;;;;5.50;2.03;;;;;;;;;;5055936;28;20056;-63
2023/11/09 11:59:41;;;;;;;7.00;2.20;;;;;;;;;;5055883;28;20048;-62
2023/11/09 12:02:09;;;;;;;5.38;1.85;;;;;;;;;;5055589;28;20064;-63
2023/11/09 12:04:36;;;;;;;6.05;1.85;;;;;;;;;;5055980;28;20055;-62
2023/11/09 12:07:10;;;;;;;6.93;2.33;;;;;;;;;;5055378;28;20052;-63
2023/11/09 12:09:39;;;;;;;7.07;1.80;;;;;;;;;;5055716;28;20080;-63
2023/11/09 12:12:12;;;;;;;5.13;1.83;;;;;;;;;;5055939;28;20458;-63
2023/11/09 12:14:39;;;;;;;6.93;2.00;;;;;;;;;;5055549;28;20072;-62
2023/11/09 12:17:06;;;;;;;9.48;2.10;;;;;;;;;;5055473;28;20422;-63
2023/11/09 12:19:33;;;;;;;7.28;2.10;;;;;;;;;;5055610;28;20060;-63
2023/11/09 12:22:01;;;;;;;5.38;1.80;;;;;;;;;;5054868;28;20063;-62
2023/11/09 12:24:28;;;;;;;6.50;2.08;;;;;;;;;;5055384;28;20423;-62
2023/11/09 12:27:07;;;;;;;5.50;2.05;;;;;;;;;;5055408;28;20048;-62
2023/11/09 12:29:36;;;;;;;5.60;2.00;;;;;;;;;;5055309;28;20395;-62
2023/11/09 12:32:02;;;;;;;6.18;2.10;;;;;;;;;;5054050;28;20474;-62
2023/11/09 12:34:35;;;;;;;4.70;2.22;;;;;;;;;;5054877;28;20049;-62
2023/11/09 12:37:03;;;;;;;5.40;2.17;;;;;;;;;;5055383;28;20075;-62
2023/11/09 12:39:31;;;;;;;7.10;2.17;;;;;;;;;;5054855;28;20056;-63
2023/11/09 12:41:59;;;;;;;8.93;2.00;;;;;;;;;;5055122;28;20057;-62
2023/11/09 12:44:29;;;;;;;6.85;1.88;;;;;;;;;;5055095;28;20510;-63
2023/11/09 12:46:56;;;;;;;9.30;2.20;;;;;;;;;;5054861;28;20061;-63
2023/11/09 12:49:23;;;;;;;7.68;2.22;;;;;;;;;;5054936;28;20064;-63
2023/11/09 12:51:51;;;;;;;5.43;2.45;;;;;;;;;;5054430;28;20056;-62
2023/11/09 12:54:20;;;;;;;6.28;1.98;;;;;;;;;;5054862;28;20053;-63
2023/11/09 12:56:49;;;;;;;;;;;;;;;;;;5055664;28;20393;-61
2023/11/09 12:59:24;;;;;;;9.10;2.13;;;;;;;;;;5054896;28;20400;-62
2023/11/09 13:01:55;;;;;;;6.95;2.13;;;;;;;;;;5055062;28;20053;-62
2023/11/09 13:04:22;;;;;;;7.00;2.03;;;;;;;;;;5054847;28;20512;-62
2023/11/09 13:06:49;;;;;;;9.32;2.67;;;;;;;;;;5054193;28;20049;-62
2023/11/09 13:09:37;;;;;;;7.50;2.00;;;;;;;;;;5054710;28;20052;-62
2023/11/09 13:14:52;;;;;;;7.15;2.30;;;;;;;;;;5053904;28;20055;-62
2023/11/09 13:17:22;;;;;;;6.63;2.30;;;;;;;;;;5054123;28;20048;-62
2023/11/09 13:19:50;;;;;;;6.93;2.50;;;;;;;;;;5054636;28;20059;-62
2023/11/09 13:22:17;;;;;;;8.13;2.22;;;;;;;;;;5053886;28;20061;-62
2023/11/09 13:24:44;;;;;;;7.78;2.30;;;;;;;;;;5054281;28;20064;-62
2023/11/09 13:27:23;;;;;;;10.45;2.80;;;;;;;;;;5053830;28;20057;-62
2023/11/09 13:29:50;;;;;;;8.07;2.35;;;;;;;;;;5054167;28;20056;-63
2023/11/09 13:32:23;;;;;;;10.43;2.50;;;;;;;;;;5054123;28;20410;-62
2023/11/09 13:35:01;;;;;;;9.43;2.70;;;;;;;;;;5053750;28;20060;-62
2023/11/09 13:37:32;;;;;;;8.65;2.50;;;;;;;;;;5053851;28;20053;-62
2023/11/09 13:40:33;;;;;;;7.53;2.50;;;;;;;;;;5053977;28;20053;-62
2023/11/09 13:43:08;;;;;;;7.75;2.65;;;;;;;;;;5053604;28;20061;-62
2023/11/09 13:45:36;;;;;;;10.38;2.85;;;;;;;;;;5053785;28;20049;-62
2023/11/09 13:48:09;;;;;;;10.07;2.45;;;;;;;;;;5053277;28;20057;-62
2023/11/09 13:50:45;;;;;;;7.25;2.20;;;;;;;;;;5053663;28;20060;-62
2023/11/09 13:53:29;;;;;;;10.73;2.90;;;;;;;;;;5053244;28;20060;-62
2023/11/09 13:56:22;;;;;;;7.78;2.30;;;;;;;;;;5053543;28;20060;-61
2023/11/09 13:58:48;;;;;;;11.82;2.55;;;;;;;;;;5053421;28;20056;-62
2023/11/09 14:01:27;;;;;;;8.63;2.83;;;;;;;;;;5053727;28;20093;-62
2023/11/09 14:03:55;;;;;;;7.57;2.28;;;;;;;;;;5053705;28;20056;-61
2023/11/09 14:06:23;;;;;;;8.15;2.58;;;;;;;;;;5053307;28;20471;-61
2023/11/09 14:08:56;;;;;;;9.45;2.30;;;;;;;;;;5052961;28;20048;-61
2023/11/09 14:11:26;;;;;;;7.38;2.13;;;;;;;;;;5052934;28;20052;-61
2023/11/09 14:14:03;;;;;;;10.93;2.67;;;;;;;;;;5052926;28;20155;-61
2023/11/09 14:16:33;;;;;;;8.13;2.53;;;;;;;;;;5053578;28;20049;-61
2023/11/09 14:19:11;;;;;;;8.00;2.30;;;;;;;;;;5052624;28;20053;-62
2023/11/09 14:21:39;;;;;;;9.13;2.72;;;;;;;;;;5053014;28;20060;-61
2023/11/09 14:24:07;;;;;;;11.98;2.55;;;;;;;;;;5052817;28;20049;-61
2023/11/09 14:26:33;;;;;;;9.85;2.75;;;;;;;;;;5053043;28;20057;-61
2023/11/09 14:29:05;;;;;;;8.45;2.30;;;;;;;;;;5053113;28;20057;-61
2023/11/09 14:31:36;;;;;;;8.13;2.90;;;;;;;;;;5053049;28;20057;-61
2023/11/09 14:34:05;;;;;;;7.68;2.28;;;;;;;;;;5052672;28;20068;-61
2023/11/09 14:36:35;;;;;;;10.35;3.15;;;;;;;;;;5053279;28;20049;-61
2023/11/09 14:39:04;;;;;;;9.75;2.80;;;;;;;;;;5052925;28;20060;-60
2023/11/09 14:41:33;;;;;;;10.00;3.35;;;;;;;;;;5052459;28;20053;-62
2023/11/09 14:44:02;;;;;;;8.05;2.42;;;;;;;;;;5052529;28;20057;-61
2023/11/09 14:46:29;;;;;;;11.37;3.10;;;;;;;;;;5052457;28;20060;-61
2023/11/09 14:48:56;;;;;;;6.68;2.38;;;;;;;;;;5052853;28;20053;-61
2023/11/09 14:51:24;;;;;;;12.85;2.60;;;;;;;;;;5052807;28;20049;-60
2023/11/09 14:53:52;;;;;;;8.77;2.22;;;;;;;;;;5052529;28;20414;-61
2023/11/09 14:56:21;;;;;;;9.93;2.53;;;;;;;;;;5052096;28;20052;-60
2023/11/09 14:58:48;;;;;;;11.40;2.95;;;;;;;;;;5052361;28;20056;-60
2023/11/09 15:01:15;;;;;;;8.85;2.40;;;;;;;;;;5052525;28;20056;-61
2023/11/09 15:03:45;;;;;;;6.93;2.50;;;;;;;;;;5052431;28;20048;-61